CPE8 weather

Oakville (Trafalgar Memorial Hospital) Heliport
Oakville, Ontario, Canada

Public forecast

Using degrees Celsius for public forecast. Weather courtesy of forecast.io.

Closest aviation weather report (METAR) to Oakville (Trafalgar Memorial Hospital) Heliport

Closest report is Lester B. Pearson International Airport, 12.3 nm (22.8 km) N. Retrieved 2019/11/19 14:00 UTC (16 minutes ago):

CYYZ 191400Z 08007KT 6SM BR SCT007 OVC018 01/00 A2981 RMK SF3SC5 SLP102

Closest aviation forecast (TAF) to Oakville (Trafalgar Memorial Hospital) Heliport

Closest forecast is Lester B. Pearson International Airport, 12.3 nm (22.8 km) N. Retrieved 2019/11/19 15:42 UTC (0 seconds ago):

TAF TAF CYYZ 191438Z 1915/2018 08008KT P6SM SCT007 OVC020 TEMPO 1915/1919 BKN007 OVC020 FM191900 13005KT P6SM OVC020 TEMPO 1919/1923 SCT020 BKN040 FM192300 VRB03KT P6SM SCT008 BKN020 OVC040 TEMPO 1923/2008 BKN008 OVC020 PROB30 1923/2008 2SM -DZ BR OVC004 FM200800 33005KT 2SM -DZ BR OVC004 TEMPO 2008/2014 6SM BR BKN006 OVC020 PROB30 2008/2014 1/2SM -DZ FG VV002 FM201400 32005KT 6SM -DZ BR BKN008 OVC025 FM201700 27005KT P6SM BKN020 BKN040 RMK NXT FCST BY 191800Z